createdAt,value
2022-09-23T00:01:14.272Z,6.90
2022-09-23T00:03:45.455Z,6.90
2022-09-23T00:06:18.501Z,6.90
2022-09-23T00:08:46.364Z,6.80
2022-09-23T00:11:25.499Z,6.80
2022-09-23T00:13:58.060Z,6.70
2022-09-23T00:16:34.469Z,6.60
2022-09-23T00:19:03.020Z,6.60
2022-09-23T00:21:30.064Z,6.50
2022-09-23T00:23:57.053Z,6.60
2022-09-23T00:26:24.696Z,6.60
2022-09-23T00:28:51.836Z,6.70
2022-09-23T00:31:24.966Z,6.70
2022-09-23T00:34:01.893Z,6.60
2022-09-23T00:36:29.892Z,6.60
2022-09-23T00:38:57.152Z,6.70
2022-09-23T00:41:25.108Z,6.80
2022-09-23T00:43:58.410Z,6.80
2022-09-23T00:46:40.198Z,6.80
2022-09-23T00:49:14.007Z,6.80
2022-09-23T00:51:49.814Z,6.80
2022-09-23T00:54:18.183Z,6.80
2022-09-23T00:56:45.510Z,6.80
2022-09-23T00:59:13.929Z,6.70
2022-09-23T01:01:42.623Z,6.70
2022-09-23T01:04:09.965Z,6.70
2022-09-23T01:06:36.963Z,6.70
2022-09-23T01:09:04.188Z,6.70
2022-09-23T01:11:43.215Z,6.70
2022-09-23T01:14:21.910Z,6.70
2022-09-23T01:17:03.903Z,6.70
2022-09-23T01:19:36.956Z,6.70
2022-09-23T01:22:14.318Z,6.70
2022-09-23T01:25:02.251Z,6.80
2022-09-23T01:27:53.318Z,6.80
2022-09-23T01:30:50.976Z,6.80
2022-09-23T01:33:32.587Z,6.80
2022-09-23T01:36:22.531Z,6.90
2022-09-23T01:39:04.799Z,6.90
2022-09-23T01:41:40.824Z,6.80
2022-09-23T01:44:39.219Z,6.80
2022-09-23T01:47:16.015Z,6.80
2022-09-23T01:50:02.666Z,6.80
2022-09-23T01:52:32.956Z,6.80
2022-09-23T01:55:25.697Z,6.80
2022-09-23T01:58:01.603Z,7.00
2022-09-23T02:00:35.104Z,7.00
2022-09-23T02:03:08.191Z,6.90
2022-09-23T02:05:47.215Z,6.90
2022-09-23T02:08:20.657Z,7.00
2022-09-23T02:10:54.240Z,7.10
2022-09-23T02:13:30.225Z,7.10
2022-09-23T02:16:02.306Z,7.10
2022-09-23T02:18:34.314Z,7.00
2022-09-23T02:21:05.900Z,6.90
2022-09-23T02:23:41.473Z,7.10
2022-09-23T02:26:39.858Z,7.10
2022-09-23T02:29:09.997Z,7.20
2022-09-23T02:31:56.056Z,7.20
2022-09-23T02:34:50.650Z,7.10
2022-09-23T02:37:38.961Z,7.10
2022-09-23T02:40:38.136Z,7.10
2022-09-23T02:43:12.450Z,7.00
2022-09-23T02:45:39.672Z,7.00
2022-09-23T02:48:33.235Z,7.00
2022-09-23T02:51:02.410Z,7.10
2022-09-23T02:53:33.884Z,7.00
2022-09-23T02:56:02.156Z,6.90
2022-09-23T02:58:30.039Z,6.80
2022-09-23T03:01:11.089Z,6.70
2022-09-23T03:03:45.192Z,6.70
2022-09-23T03:06:38.389Z,6.70
2022-09-23T03:09:21.755Z,6.60
2022-09-23T03:11:59.917Z,6.60
2022-09-23T03:14:45.055Z,6.60
2022-09-23T03:17:20.971Z,6.60
2022-09-23T03:19:58.094Z,6.60
2022-09-23T03:22:35.497Z,6.70
2022-09-23T03:25:08.991Z,6.80
2022-09-23T03:27:37.867Z,6.80
2022-09-23T03:30:06.937Z,6.80
2022-09-23T03:32:36.241Z,6.90
2022-09-23T03:35:05.495Z,7.00
2022-09-23T03:37:53.431Z,7.10
2022-09-23T03:40:26.283Z,7.10
2022-09-23T03:42:56.208Z,7.20
2022-09-23T03:45:28.090Z,7.20
2022-09-23T03:47:55.169Z,7.20
2022-09-23T03:50:22.366Z,7.20
2022-09-23T03:52:50.549Z,7.40
2022-09-23T03:55:19.364Z,7.50
2022-09-23T03:57:46.719Z,7.50
2022-09-23T04:00:15.421Z,7.70
2022-09-23T04:02:43.041Z,7.60
2022-09-23T04:05:11.731Z,7.70
2022-09-23T04:07:38.945Z,7.70
2022-09-23T04:10:07.055Z,7.70
2022-09-23T04:12:33.988Z,7.70
2022-09-23T04:15:00.963Z,7.80
2022-09-23T04:17:27.968Z,7.80
2022-09-23T04:19:54.947Z,7.80
2022-09-23T04:22:22.219Z,7.80
2022-09-23T04:24:49.368Z,7.80
2022-09-23T04:27:16.473Z,7.90
2022-09-23T04:29:43.458Z,7.90
2022-09-23T04:32:10.483Z,8.00
2022-09-23T04:34:37.427Z,8.00
2022-09-23T04:37:04.468Z,8.00
2022-09-23T04:39:31.530Z,8.10
2022-09-23T04:41:58.468Z,8.20
2022-09-23T04:44:26.826Z,8.30
2022-09-23T04:46:53.956Z,8.30
2022-09-23T04:49:21.035Z,8.40
2022-09-23T04:51:49.178Z,8.40
2022-09-23T04:54:16.178Z,8.40
2022-09-23T04:56:43.269Z,8.50
2022-09-23T04:59:10.334Z,8.60
2022-09-23T05:01:38.442Z,8.60
2022-09-23T05:04:08.666Z,8.70
2022-09-23T05:06:36.436Z,8.70
2022-09-23T05:09:06.386Z,8.70
2022-09-23T05:11:34.187Z,8.70
2022-09-23T05:14:01.387Z,8.70
2022-09-23T05:16:29.565Z,8.70
2022-09-23T05:18:57.620Z,8.70
2022-09-23T05:21:27.563Z,8.70
2022-09-23T05:23:56.625Z,8.70
2022-09-23T05:26:25.804Z,8.80
2022-09-23T05:28:54.021Z,8.80
2022-09-23T05:31:24.231Z,8.80
2022-09-23T05:33:57.752Z,8.90
2022-09-23T05:36:25.924Z,8.90
2022-09-23T05:38:53.538Z,8.90
2022-09-23T05:41:25.780Z,8.90
2022-09-23T05:43:54.030Z,8.90
2022-09-23T05:46:24.388Z,8.90
2022-09-23T05:48:51.779Z,8.90
2022-09-23T05:51:28.770Z,8.90
2022-09-23T05:53:58.458Z,9.00
2022-09-23T05:56:27.649Z,9.00
2022-09-23T05:58:56.691Z,9.00
2022-09-23T06:01:26.465Z,9.00
2022-09-23T06:03:55.000Z,9.00
2022-09-23T06:06:39.917Z,9.10
2022-09-23T06:09:08.785Z,9.10
2022-09-23T06:11:36.265Z,9.10
2022-09-23T06:14:04.186Z,9.20
2022-09-23T06:16:34.151Z,9.20
2022-09-23T06:19:06.135Z,9.20
2022-09-23T06:21:35.356Z,9.30
2022-09-23T06:24:03.081Z,9.30
2022-09-23T06:26:33.626Z,9.30
2022-09-23T06:29:02.497Z,9.30
2022-09-23T06:31:29.740Z,9.40
2022-09-23T06:34:08.091Z,9.40
2022-09-23T06:36:43.993Z,9.40
2022-09-23T06:39:12.125Z,9.40
2022-09-23T06:41:39.442Z,9.50
2022-09-23T06:44:06.651Z,9.50
2022-09-23T06:46:33.861Z,9.60
2022-09-23T06:49:02.114Z,9.60
2022-09-23T06:51:29.057Z,9.70
2022-09-23T06:53:56.029Z,9.80
2022-09-23T06:56:23.798Z,9.80
2022-09-23T06:58:52.844Z,9.90
2022-09-23T07:01:20.081Z,9.90
2022-09-23T07:03:48.540Z,10.00
2022-09-23T07:06:17.189Z,10.00
2022-09-23T07:08:47.165Z,10.10
2022-09-23T07:11:15.811Z,10.20
2022-09-23T07:13:43.241Z,10.30
2022-09-23T07:16:11.348Z,10.30
2022-09-23T07:18:39.028Z,10.30
2022-09-23T07:21:07.190Z,10.40
2022-09-23T07:23:34.731Z,10.50
2022-09-23T07:26:02.027Z,10.50
2022-09-23T07:28:29.222Z,10.50
2022-09-23T07:31:00.243Z,10.50
2022-09-23T07:33:33.073Z,10.50
2022-09-23T07:36:05.334Z,10.60
2022-09-23T07:38:32.383Z,10.60
2022-09-23T07:41:13.325Z,10.70
2022-09-23T07:43:40.857Z,10.90
2022-09-23T07:46:11.700Z,11.00
2022-09-23T07:48:39.379Z,11.20
2022-09-23T07:51:11.877Z,11.20
2022-09-23T07:53:39.315Z,11.30
2022-09-23T07:56:06.756Z,11.40
2022-09-23T07:58:34.699Z,11.40
2022-09-23T08:01:05.780Z,11.50
2022-09-23T08:03:33.399Z,11.50
2022-09-23T08:06:18.174Z,11.50
2022-09-23T08:08:45.989Z,11.50
2022-09-23T08:11:14.600Z,11.50
2022-09-23T08:13:42.523Z,11.60
2022-09-23T08:16:10.258Z,11.60
2022-09-23T08:18:37.328Z,11.70
2022-09-23T08:21:04.587Z,11.80
2022-09-23T08:23:33.675Z,12.00
2022-09-23T08:26:03.068Z,12.10
2022-09-23T08:28:31.999Z,12.20
2022-09-23T08:30:58.998Z,12.10
2022-09-23T08:33:26.787Z,12.10
2022-09-23T08:35:58.496Z,12.20
2022-09-23T08:38:25.551Z,12.30
2022-09-23T08:40:55.700Z,12.40
2022-09-23T08:43:29.204Z,12.50
2022-09-23T08:46:00.298Z,12.50
2022-09-23T08:48:56.659Z,12.50
2022-09-23T08:51:48.514Z,12.60
2022-09-23T08:54:17.804Z,12.60
2022-09-23T08:56:49.204Z,12.70
2022-09-23T08:59:42.977Z,12.60
2022-09-23T09:02:13.935Z,12.50
2022-09-23T09:04:44.534Z,12.60
2022-09-23T09:07:37.958Z,12.60
2022-09-23T09:10:25.065Z,12.60
2022-09-23T09:13:24.175Z,12.70
2022-09-23T09:16:15.094Z,12.70
2022-09-23T09:18:55.634Z,12.90
2022-09-23T09:21:34.230Z,13.00
2022-09-23T09:24:05.707Z,13.00
2022-09-23T09:26:34.201Z,13.10
2022-09-23T09:29:17.230Z,13.10
2022-09-23T09:31:52.268Z,13.20
2022-09-23T09:34:26.357Z,13.20
2022-09-23T09:37:15.725Z,13.30
2022-09-23T09:39:42.672Z,13.30
2022-09-23T09:42:18.631Z,13.40
2022-09-23T09:45:00.864Z,13.50
2022-09-23T09:47:30.851Z,13.50
2022-09-23T09:50:08.468Z,13.60
2022-09-23T09:52:39.242Z,13.70
2022-09-23T09:55:15.356Z,13.80
2022-09-23T09:58:13.365Z,14.00
2022-09-23T10:00:44.790Z,14.10
2022-09-23T10:03:14.725Z,14.20
2022-09-23T10:05:47.464Z,14.20
2022-09-23T10:08:35.280Z,14.40
2022-09-23T10:11:16.810Z,14.50
2022-09-23T10:14:05.788Z,14.50
2022-09-23T10:16:37.312Z,14.60
2022-09-23T10:19:13.862Z,14.70
2022-09-23T10:21:41.621Z,14.60
2022-09-23T10:24:20.215Z,14.70
2022-09-23T10:27:12.138Z,14.80
2022-09-23T10:29:46.448Z,14.90
2022-09-23T10:32:43.287Z,14.90
2022-09-23T10:35:11.344Z,14.90
2022-09-23T10:37:49.554Z,15.00
2022-09-23T10:40:41.901Z,15.00
2022-09-23T10:43:36.936Z,15.00
2022-09-23T10:46:27.028Z,14.90
2022-09-23T10:49:18.792Z,14.80
2022-09-23T10:51:55.983Z,14.70
2022-09-23T10:54:36.335Z,14.70
2022-09-23T10:57:38.189Z,14.70
2022-09-23T11:00:11.537Z,14.70
2022-09-23T11:02:57.699Z,14.70
2022-09-23T11:05:46.450Z,14.70
2022-09-23T11:08:13.343Z,14.70
2022-09-23T11:11:09.994Z,14.80
2022-09-23T11:14:07.557Z,14.80
2022-09-23T11:16:45.783Z,14.80
2022-09-23T11:19:40.180Z,14.90
2022-09-23T11:22:53.245Z,14.90
2022-09-23T11:25:33.969Z,14.80
2022-09-23T11:28:39.363Z,14.80
2022-09-23T11:31:33.677Z,14.90
2022-09-23T11:34:01.709Z,15.00
2022-09-23T11:36:34.160Z,15.00
2022-09-23T11:39:10.053Z,14.90
2022-09-23T11:41:39.830Z,15.00
2022-09-23T11:44:26.203Z,15.00
2022-09-23T11:46:59.713Z,15.00
2022-09-23T11:49:41.250Z,15.00
2022-09-23T11:52:21.372Z,15.00
2022-09-23T11:55:08.026Z,15.10
2022-09-23T11:57:49.684Z,15.10
2022-09-23T12:00:19.893Z,15.10
2022-09-23T12:03:01.717Z,15.00
2022-09-23T12:05:47.669Z,14.90
2022-09-23T12:08:29.319Z,14.90
2022-09-23T12:11:11.179Z,15.00
2022-09-23T12:14:03.127Z,15.00
2022-09-23T12:16:55.240Z,15.00
2022-09-23T12:19:55.570Z,15.00
2022-09-23T12:22:33.741Z,15.10
2022-09-23T12:25:31.316Z,15.10
2022-09-23T12:28:05.606Z,15.10
2022-09-23T12:30:36.345Z,15.10
2022-09-23T12:33:22.040Z,15.10
2022-09-23T12:35:49.151Z,15.20
2022-09-23T12:38:30.170Z,15.20
2022-09-23T12:40:57.258Z,15.10
2022-09-23T12:43:30.326Z,15.10
2022-09-23T12:46:36.033Z,15.10
2022-09-23T12:49:06.636Z,15.10
2022-09-23T12:51:37.042Z,15.10
2022-09-23T12:54:03.970Z,15.10
2022-09-23T12:56:37.071Z,15.20
2022-09-23T12:59:14.634Z,15.20
2022-09-23T13:01:42.421Z,15.10
2022-09-23T13:05:13.187Z,15.10
2022-09-23T13:07:45.789Z,15.10
2022-09-23T13:10:33.298Z,15.10
2022-09-23T13:13:02.430Z,15.20
2022-09-23T13:15:35.824Z,15.20
2022-09-23T13:18:21.155Z,15.20
2022-09-23T13:20:53.272Z,15.20
2022-09-23T13:23:33.869Z,15.20
2022-09-23T13:26:09.391Z,15.20
2022-09-23T13:28:54.534Z,15.20
2022-09-23T13:31:21.526Z,15.20
2022-09-23T13:34:04.486Z,15.20
2022-09-23T13:36:47.404Z,15.20
2022-09-23T13:39:16.721Z,15.20
2022-09-23T13:41:45.380Z,15.10
2022-09-23T13:44:20.449Z,15.10
2022-09-23T13:46:53.980Z,15.10
2022-09-23T13:49:32.212Z,15.00
2022-09-23T13:51:59.842Z,14.90
2022-09-23T13:54:32.127Z,14.90
2022-09-23T13:57:00.044Z,14.80
2022-09-23T13:59:42.389Z,14.80
2022-09-23T14:02:20.022Z,14.70
2022-09-23T14:04:47.292Z,14.60
2022-09-23T14:07:16.473Z,14.60
2022-09-23T14:09:46.905Z,14.60
2022-09-23T14:12:14.347Z,14.60
2022-09-23T14:14:42.509Z,14.60
2022-09-23T14:17:15.787Z,14.60
2022-09-23T14:19:43.185Z,14.50
2022-09-23T14:22:25.054Z,14.60
2022-09-23T14:24:52.968Z,14.50
2022-09-23T14:27:33.946Z,14.50
2022-09-23T14:30:02.889Z,14.50
2022-09-23T14:32:30.635Z,14.50
2022-09-23T14:35:00.672Z,14.50
2022-09-23T14:37:57.887Z,14.50
2022-09-23T14:40:33.963Z,14.50
2022-09-23T14:43:26.794Z,14.50
2022-09-23T14:45:59.029Z,14.40
2022-09-23T14:48:29.789Z,14.40
2022-09-23T14:50:59.507Z,14.40
2022-09-23T14:53:35.191Z,14.40
2022-09-23T14:56:10.888Z,14.40
2022-09-23T14:58:52.385Z,14.30
2022-09-23T15:01:34.790Z,14.20
2022-09-23T15:04:13.951Z,14.10
2022-09-23T15:06:49.234Z,14.10
2022-09-23T15:09:26.702Z,13.90
2022-09-23T15:12:02.098Z,13.90
2022-09-23T15:14:38.345Z,13.80
2022-09-23T15:17:30.161Z,13.80
2022-09-23T15:20:03.794Z,13.80
2022-09-23T15:22:30.861Z,13.80
2022-09-23T15:25:25.103Z,13.80
2022-09-23T15:28:10.863Z,13.80
2022-09-23T15:30:39.459Z,13.80
2022-09-23T15:33:07.048Z,13.70
2022-09-23T15:35:34.240Z,13.70
2022-09-23T15:38:02.229Z,13.70
2022-09-23T15:40:37.333Z,13.70
2022-09-23T15:43:20.715Z,13.60
2022-09-23T15:45:53.297Z,13.60
2022-09-23T15:48:27.696Z,13.50
2022-09-23T15:50:55.449Z,13.50
2022-09-23T15:53:26.136Z,13.50
2022-09-23T15:55:54.109Z,13.50
2022-09-23T15:58:22.626Z,13.40
2022-09-23T16:00:56.056Z,13.40
2022-09-23T16:03:28.630Z,13.30
2022-09-23T16:06:00.149Z,13.30
2022-09-23T16:08:28.032Z,13.20
2022-09-23T16:10:55.620Z,13.20
2022-09-23T16:13:23.072Z,13.20
2022-09-23T16:15:50.175Z,13.20
2022-09-23T16:18:17.321Z,13.20
2022-09-23T16:20:46.033Z,13.20
2022-09-23T16:23:37.643Z,13.20
2022-09-23T16:26:11.247Z,13.20
2022-09-23T16:28:38.215Z,13.10
2022-09-23T16:31:05.482Z,13.10
2022-09-23T16:33:32.635Z,13.10
2022-09-23T16:36:03.034Z,13.00
2022-09-23T16:38:31.218Z,13.10
2022-09-23T16:41:00.816Z,13.00
2022-09-23T16:43:32.749Z,13.10
2022-09-23T16:45:59.823Z,13.10
2022-09-23T16:48:26.876Z,13.00
2022-09-23T16:50:54.049Z,13.00
2022-09-23T16:53:21.393Z,12.90
2022-09-23T16:55:48.340Z,12.90
2022-09-23T16:58:15.308Z,12.80
2022-09-23T17:01:17.467Z,12.80
2022-09-23T17:03:44.480Z,12.80
2022-09-23T17:06:14.914Z,12.70
2022-09-23T17:08:42.946Z,12.70
2022-09-23T17:11:14.422Z,12.70
2022-09-23T17:13:42.504Z,12.60
2022-09-23T17:16:23.120Z,12.50
2022-09-23T17:18:50.142Z,12.50
2022-09-23T17:21:17.112Z,12.50
2022-09-23T17:23:44.153Z,12.50
2022-09-23T17:26:12.513Z,12.50
2022-09-23T17:28:39.678Z,12.50
2022-09-23T17:31:07.588Z,12.50
2022-09-23T17:33:38.880Z,12.50
2022-09-23T17:36:08.175Z,12.50
2022-09-23T17:38:35.569Z,12.50
2022-09-23T17:41:02.891Z,12.40
2022-09-23T17:43:30.252Z,12.40
2022-09-23T17:46:06.749Z,12.40
2022-09-23T17:48:44.200Z,12.40
2022-09-23T17:51:21.867Z,12.50
2022-09-23T17:53:49.695Z,12.60
2022-09-23T17:56:34.243Z,12.60
2022-09-23T17:59:02.806Z,12.60
2022-09-23T18:01:30.168Z,12.50
2022-09-23T18:03:59.024Z,12.50
2022-09-23T18:06:33.663Z,12.50
2022-09-23T18:09:03.741Z,12.60
2022-09-23T18:11:36.210Z,12.60
2022-09-23T18:14:06.690Z,12.60
2022-09-23T18:16:39.631Z,12.60
2022-09-23T18:19:08.151Z,12.60
2022-09-23T18:21:40.142Z,12.60
2022-09-23T18:24:31.211Z,12.60
2022-09-23T18:26:59.538Z,12.60
2022-09-23T18:29:26.809Z,12.60
2022-09-23T18:31:53.929Z,12.60
2022-09-23T18:34:21.125Z,12.70
2022-09-23T18:36:48.145Z,12.60
2022-09-23T18:39:15.179Z,12.60
2022-09-23T18:41:42.383Z,12.60
2022-09-23T18:44:09.900Z,12.60
2022-09-23T18:46:37.337Z,12.50
2022-09-23T18:49:23.371Z,12.50
2022-09-23T18:51:51.799Z,12.40
2022-09-23T18:54:19.717Z,12.40
2022-09-23T18:56:46.959Z,12.40
2022-09-23T18:59:19.680Z,12.40
2022-09-23T19:01:49.165Z,12.40
2022-09-23T19:04:18.869Z,12.40
2022-09-23T19:06:45.925Z,12.40
2022-09-23T19:09:14.056Z,12.40
2022-09-23T19:11:41.152Z,12.30
2022-09-23T19:14:11.404Z,12.30
2022-09-23T19:16:40.013Z,12.30
2022-09-23T19:19:07.628Z,12.30
2022-09-23T19:21:35.127Z,12.30
2022-09-23T19:24:07.418Z,12.40
2022-09-23T19:26:37.699Z,12.40
2022-09-23T19:29:06.321Z,12.40
2022-09-23T19:31:37.225Z,12.40
2022-09-23T19:34:10.700Z,12.40
2022-09-23T19:36:42.254Z,12.30
2022-09-23T19:39:17.107Z,12.30
2022-09-23T19:41:44.699Z,12.30
2022-09-23T19:44:11.888Z,12.20
2022-09-23T19:46:42.855Z,12.10
2022-09-23T19:49:11.156Z,12.10
2022-09-23T19:51:38.996Z,12.20
2022-09-23T19:54:07.448Z,12.20
2022-09-23T19:56:35.388Z,12.10
2022-09-23T19:59:05.883Z,12.10
2022-09-23T20:01:33.328Z,12.00
2022-09-23T20:04:00.530Z,12.00
2022-09-23T20:06:32.618Z,12.00
2022-09-23T20:09:00.942Z,12.00
2022-09-23T20:11:28.949Z,11.90
2022-09-23T20:14:01.653Z,11.90
2022-09-23T20:16:32.494Z,11.80
2022-09-23T20:19:00.794Z,11.80
2022-09-23T20:21:29.266Z,11.80
2022-09-23T20:23:56.891Z,11.70
2022-09-23T20:26:42.775Z,11.70
2022-09-23T20:29:10.836Z,11.70
2022-09-23T20:31:40.460Z,11.70
2022-09-23T20:34:08.302Z,11.70
2022-09-23T20:36:36.101Z,11.70
2022-09-23T20:39:08.221Z,11.70
2022-09-23T20:41:37.871Z,11.60
2022-09-23T20:44:12.549Z,11.60
2022-09-23T20:46:48.622Z,11.50
2022-09-23T20:49:19.637Z,11.50
2022-09-23T20:51:50.430Z,11.50
2022-09-23T20:54:20.971Z,11.50
2022-09-23T20:56:48.060Z,11.40
2022-09-23T20:59:15.165Z,11.40
2022-09-23T21:01:42.316Z,11.40
2022-09-23T21:04:10.135Z,11.30
2022-09-23T21:06:38.908Z,11.30
2022-09-23T21:09:06.966Z,11.30
2022-09-23T21:11:33.993Z,11.20
2022-09-23T21:14:02.200Z,11.30
2022-09-23T21:16:29.793Z,11.30
2022-09-23T21:18:57.712Z,11.20
2022-09-23T21:21:25.502Z,11.20
2022-09-23T21:23:52.531Z,11.20
2022-09-23T21:26:24.699Z,11.10
2022-09-23T21:28:58.800Z,11.10
2022-09-23T21:31:28.334Z,11.10
2022-09-23T21:34:00.613Z,11.10
2022-09-23T21:36:39.489Z,11.10
2022-09-23T21:39:09.133Z,11.00
2022-09-23T21:41:36.223Z,11.00
2022-09-23T21:44:04.768Z,11.00
2022-09-23T21:46:33.907Z,11.00
2022-09-23T21:49:03.744Z,11.00
2022-09-23T21:51:40.696Z,10.90
2022-09-23T21:54:14.232Z,10.90
2022-09-23T21:56:42.055Z,10.90
2022-09-23T21:59:09.503Z,11.00
2022-09-23T22:01:39.097Z,10.90
2022-09-23T22:04:13.232Z,10.80
2022-09-23T22:06:40.601Z,10.80
2022-09-23T22:09:12.771Z,10.70
2022-09-23T22:11:59.532Z,10.70
2022-09-23T22:14:27.315Z,10.60
2022-09-23T22:16:59.216Z,10.60
2022-09-23T22:19:35.320Z,10.60
2022-09-23T22:22:08.334Z,10.60
2022-09-23T22:24:35.278Z,10.50
2022-09-23T22:27:02.209Z,10.50
2022-09-23T22:29:47.620Z,10.60
2022-09-23T22:32:33.253Z,10.60
2022-09-23T22:35:00.269Z,10.60
2022-09-23T22:37:36.030Z,10.70
2022-09-23T22:40:06.538Z,10.70
2022-09-23T22:42:33.612Z,10.70
2022-09-23T22:45:00.792Z,10.70
2022-09-23T22:47:27.776Z,10.70
2022-09-23T22:49:55.585Z,10.70
2022-09-23T22:52:24.646Z,10.70
2022-09-23T22:54:52.497Z,10.70
2022-09-23T22:57:19.794Z,10.70
2022-09-23T22:59:50.395Z,10.60
2022-09-23T23:02:19.368Z,10.60
2022-09-23T23:04:49.750Z,10.50
2022-09-23T23:07:23.070Z,10.50
2022-09-23T23:09:50.969Z,10.50
2022-09-23T23:12:20.225Z,10.50
2022-09-23T23:14:48.498Z,10.50
2022-09-23T23:17:15.542Z,10.50
2022-09-23T23:19:42.542Z,10.50
2022-09-23T23:22:09.599Z,10.40
2022-09-23T23:24:36.620Z,10.40
2022-09-23T23:27:03.696Z,10.40
2022-09-23T23:29:30.729Z,10.40
2022-09-23T23:31:57.670Z,10.50
2022-09-23T23:34:24.638Z,10.40
2022-09-23T23:36:55.126Z,10.40
2022-09-23T23:39:24.187Z,10.40
2022-09-23T23:41:58.045Z,10.40
2022-09-23T23:44:26.309Z,10.30
2022-09-23T23:46:54.455Z,10.20
2022-09-23T23:49:21.881Z,10.20
2022-09-23T23:51:49.179Z,10.20
2022-09-23T23:54:16.325Z,10.10
2022-09-23T23:56:43.551Z,10.10
2022-09-23T23:59:10.788Z,10.10
